Time;durP1;ratioP1;P1;durP2;ratioP2;P2;SDS_P1;SDS_P2;PMS_P1;PMS_P2;Temp;Humidity;BMP_temperature;BMP_pressure;BME280_temperature;BME280_humidity;BME280_pressure;Samples;Min_cycle;Max_cycle;Signal;HPM_P1;HPM_P2
2022/05/19 04:01:24;;;;;;;4.20;3.80;;;16.40;99.90;;;;;;5533582;23;20604;-75
2022/05/19 04:03:51;;;;;;;5.00;4.30;;;16.40;99.90;;;;;;4947185;29;20466;-75
2022/05/19 04:06:19;;;;;;;5.20;4.70;;;16.30;99.90;;;;;;4946594;29;21056;-75
2022/05/19 04:08:46;;;;;;;4.80;4.30;;;16.30;99.90;;;;;;4947149;29;20462;-75
2022/05/19 04:11:14;;;;;;;7.90;4.50;;;16.30;99.90;;;;;;4946731;28;20473;-75
2022/05/19 04:13:40;;;;;;;8.37;4.67;;;16.30;99.90;;;;;;4946512;29;20493;-75
2022/05/19 04:16:08;;;;;;;4.60;4.20;;;16.30;99.90;;;;;;4945206;29;20457;-75
2022/05/19 04:18:36;;;;;;;7.80;4.20;;;16.30;99.90;;;;;;4947180;29;20453;-75
2022/05/19 04:21:04;;;;;;;7.20;4.03;;;16.30;99.90;;;;;;4946804;28;20485;-75
2022/05/19 04:23:30;;;;;;;4.50;4.00;;;16.30;99.90;;;;;;4946914;29;20472;-75
2022/05/19 04:25:57;;;;;;;5.73;4.07;;;16.30;99.90;;;;;;4946534;29;20483;-75
2022/05/19 04:28:24;;;;;;;5.70;4.20;;;16.30;99.90;;;;;;4946730;29;20919;-75
2022/05/19 04:30:51;;;;;;;6.77;4.20;;;16.30;99.90;;;;;;4948576;28;20485;-75
2022/05/19 04:33:18;;;;;;;8.90;4.43;;;16.20;99.90;;;;;;4950300;29;20654;-75
2022/05/19 04:35:46;;;;;;;5.30;4.23;;;16.30;99.90;;;;;;4950043;29;20556;-68
2022/05/19 04:38:17;;;;;;;5.27;4.40;;;16.20;99.90;;;;;;4950888;29;20453;-69
2022/05/19 04:40:47;;;;;;;6.00;5.00;;;16.30;99.90;;;;;;4951597;28;20487;-68
2022/05/19 04:43:19;;;;;;;7.17;5.03;;;16.30;99.90;;;;;;4951483;29;20803;-69
2022/05/19 04:45:47;;;;;;;12.10;5.50;;;16.20;99.90;;;;;;4950762;29;21001;-69
2022/05/19 04:48:14;;;;;;;14.33;6.40;;;16.20;99.90;;;;;;4951128;29;20461;-69
2022/05/19 04:50:41;;;;;;;8.93;5.50;;;16.30;99.90;;;;;;4951065;28;20504;-69
2022/05/19 04:53:10;;;;;;;7.10;5.90;;;16.20;99.90;;;;;;4951403;29;21123;-69
2022/05/19 04:55:37;;;;;;;9.27;5.90;;;16.30;99.90;;;;;;4947980;29;20468;-76
2022/05/19 04:58:05;;;;;;;8.03;5.13;;;16.20;99.90;;;;;;4949458;29;20573;-76
2022/05/19 05:00:32;;;;;;;10.27;5.03;;;16.30;99.90;;;;;;4949204;28;20457;-76
2022/05/19 05:02:59;;;;;;;4.63;3.63;;;16.30;99.90;;;;;;4949326;29;20461;-76
2022/05/19 05:05:26;;;;;;;5.50;4.00;;;16.30;99.90;;;;;;4948509;29;20471;-76
2022/05/19 05:07:53;;;;;;;4.27;3.40;;;16.40;99.90;;;;;;4948587;29;20473;-77
2022/05/19 05:10:21;;;;;;;7.20;3.23;;;16.50;99.90;;;;;;4950144;28;21020;-77
2022/05/19 05:12:48;;;;;;;3.90;3.50;;;16.50;99.90;;;;;;4950912;29;20500;-77
2022/05/19 05:15:15;;;;;;;3.33;3.03;;;16.50;99.90;;;;;;4949746;29;20657;-77
2022/05/19 05:17:42;;;;;;;3.97;3.30;;;16.60;99.90;;;;;;4950937;29;20569;-77
2022/05/19 05:20:12;;;;;;;4.00;3.40;;;16.60;99.90;;;;;;4950392;29;20475;-77
2022/05/19 05:22:39;;;;;;;4.43;3.23;;;16.60;99.90;;;;;;4950648;29;20465;-77
2022/05/19 05:25:08;;;;;;;5.70;3.43;;;16.70;99.90;;;;;;4951565;29;20469;-78
2022/05/19 05:27:37;;;;;;;4.60;3.10;;;16.70;99.90;;;;;;4952699;29;20553;-77
2022/05/19 05:30:05;;;;;;;3.40;3.03;;;16.80;99.90;;;;;;4952268;29;20841;-78
2022/05/19 05:32:31;;;;;;;6.40;3.70;;;16.80;99.90;;;;;;4951297;28;20493;-77
2022/05/19 05:34:58;;;;;;;5.60;3.87;;;16.80;99.90;;;;;;4950569;29;20472;-77
2022/05/19 05:37:25;;;;;;;4.97;3.20;;;16.80;99.90;;;;;;4949556;29;20469;-77
2022/05/19 05:39:52;;;;;;;5.77;3.23;;;16.90;99.90;;;;;;4950090;29;20893;-77
2022/05/19 05:42:19;;;;;;;5.27;3.80;;;16.90;99.90;;;;;;4949201;28;20588;-76
2022/05/19 05:44:48;;;;;;;6.40;3.63;;;16.90;99.90;;;;;;4949978;29;20520;-77
2022/05/19 05:47:14;;;;;;;4.07;3.57;;;16.90;99.90;;;;;;4949510;29;20458;-76
2022/05/19 05:49:41;;;;;;;4.80;3.30;;;17.00;99.90;;;;;;4949247;29;20497;-77
2022/05/19 05:52:08;;;;;;;5.13;3.10;;;17.00;99.90;;;;;;4948954;28;21407;-65
2022/05/19 05:54:35;;;;;;;6.03;3.03;;;17.00;99.90;;;;;;4948752;29;20836;-66
2022/05/19 05:57:02;;;;;;;6.87;3.43;;;17.10;99.90;;;;;;4949462;29;20830;-65
2022/05/19 05:59:29;;;;;;;4.93;3.63;;;17.10;99.90;;;;;;4949348;29;20472;-65
2022/05/19 06:01:57;;;;;;;7.03;3.30;;;17.10;99.90;;;;;;4948894;28;20488;-77
2022/05/19 06:04:24;;;;;;;4.77;3.20;;;17.20;99.90;;;;;;4951586;29;20462;-77
2022/05/19 06:06:51;;;;;;;4.30;3.50;;;17.20;99.90;;;;;;4953174;29;20521;-77
2022/05/19 06:09:18;;;;;;;6.63;3.40;;;17.30;99.90;;;;;;4952082;29;20460;-78
2022/05/19 06:11:45;;;;;;;7.60;3.10;;;17.30;99.90;;;;;;4953696;28;20553;-78
2022/05/19 06:14:12;;;;;;;5.73;3.43;;;17.30;99.90;;;;;;4940343;29;20498;-78
2022/05/19 06:16:39;;;;;;;4.37;2.80;;;17.40;99.90;;;;;;4935151;29;20458;-78
2022/05/19 06:19:07;;;;;;;3.63;3.10;;;17.40;99.90;;;;;;4935441;29;20466;-78
2022/05/19 06:21:36;;;;;;;4.87;3.00;;;17.50;99.90;;;;;;4937051;29;20554;-78
2022/05/19 06:24:08;;;;;;;5.23;3.17;;;17.50;99.90;;;;;;4946722;29;20494;-76
2022/05/19 06:26:35;;;;;;;3.60;3.10;;;17.60;99.90;;;;;;4946991;29;20490;-76
2022/05/19 06:29:02;;;;;;;5.40;3.30;;;17.60;99.90;;;;;;4946735;29;20462;-77
2022/05/19 06:31:31;;;;;;;3.50;3.20;;;17.80;99.90;;;;;;4946560;29;20498;-76
2022/05/19 06:33:59;;;;;;;4.13;2.80;;;17.80;99.90;;;;;;4944065;29;20494;-77
2022/05/19 06:36:27;;;;;;;4.63;3.33;;;17.90;99.90;;;;;;4932445;29;20464;-77
2022/05/19 06:38:54;;;;;;;4.13;3.03;;;18.00;99.90;;;;;;4931864;29;20846;-77
2022/05/19 06:44:20;;;;;;;4.20;2.90;;;18.00;99.90;;;;;;4889009;29;21154;-76
2022/05/19 06:46:47;;;;;;;4.10;3.23;;;18.20;99.90;;;;;;4890223;29;20519;-78
2022/05/19 06:49:15;;;;;;;5.43;3.07;;;18.30;99.90;;;;;;4907565;29;20467;-77
2022/05/19 06:51:43;;;;;;;4.70;2.90;;;18.40;99.90;;;;;;4930374;29;20483;-77
2022/05/19 06:54:10;;;;;;;3.03;2.50;;;18.40;99.90;;;;;;4929957;29;20600;-78
2022/05/19 06:56:37;;;;;;;3.20;2.90;;;18.50;99.90;;;;;;4930491;29;20470;-78
2022/05/19 06:59:04;;;;;;;4.17;2.80;;;18.60;99.90;;;;;;4930363;29;20469;-77
2022/05/19 07:01:31;;;;;;;3.43;2.70;;;18.70;99.90;;;;;;4930002;29;20846;-77
2022/05/19 07:03:58;;;;;;;6.27;2.57;;;18.80;99.90;;;;;;4929486;29;20485;-77
2022/05/19 07:06:25;;;;;;;6.50;3.17;;;18.90;99.90;;;;;;4929976;29;20907;-77
2022/05/19 07:08:54;;;;;;;4.27;3.00;;;19.00;99.90;;;;;;4929921;29;20462;-77
2022/05/19 07:11:33;;;;;;;8.27;3.30;;;19.10;99.90;;;;;;4933519;29;20513;-80
2022/05/19 07:14:02;;;;;;;5.67;2.90;;;19.10;99.90;;;;;;4931290;29;20498;-77
2022/05/19 07:16:33;;;;;;;4.53;2.50;;;19.20;99.90;;;;;;4930212;29;20458;-77
2022/05/19 07:21:46;;;;;;;2.70;2.43;;;19.40;99.90;;;;;;4931635;29;20461;-78
2022/05/19 07:24:16;;;;;;;6.40;2.87;;;19.50;99.90;;;;;;4928983;29;20542;-76
2022/05/19 07:26:44;;;;;;;7.47;3.10;;;19.60;99.90;;;;;;4934989;29;21068;-75
2022/05/19 07:29:11;;;;;;;4.77;2.70;;;19.70;99.90;;;;;;4947710;29;20457;-76
2022/05/19 07:31:38;;;;;;;5.43;3.43;;;19.80;99.90;;;;;;4947402;28;20481;-76
2022/05/19 07:34:05;;;;;;;4.10;3.23;;;19.90;99.90;;;;;;4945910;29;20494;-75
2022/05/19 07:36:33;;;;;;;5.80;2.63;;;20.00;99.90;;;;;;4946362;29;20464;-76
2022/05/19 07:39:12;;;;;;;3.23;2.93;;;20.10;99.90;;;;;;4949760;29;20500;-79
2022/05/19 07:41:41;;;;;;;11.73;2.80;;;20.20;99.90;;;;;;4952575;28;20511;-79
2022/05/19 07:44:11;;;;;;;3.30;3.00;;;20.20;99.90;;;;;;4952285;29;20468;-79
2022/05/19 07:46:38;;;;;;;2.63;2.43;;;20.40;99.90;;;;;;4951745;29;20470;-79
2022/05/19 07:49:06;;;;;;;5.60;3.07;;;20.50;99.90;;;;;;4945768;29;20575;-79
2022/05/19 07:51:40;;;;;;;7.00;2.83;;;20.50;99.90;;;;;;4933752;29;20549;-78
2022/05/19 07:54:10;;;;;;;4.67;2.70;;;20.60;99.90;;;;;;4933672;29;20494;-78
2022/05/19 07:56:44;;;;;;;4.80;3.20;;;20.80;99.90;;;;;;4934691;29;20506;-78
2022/05/19 07:59:12;;;;;;;4.17;2.73;;;20.90;99.90;;;;;;4934189;29;20950;-78
2022/05/19 08:01:41;;;;;;;4.70;3.20;;;20.90;99.90;;;;;;4931702;29;20498;-77
2022/05/19 08:04:09;;;;;;;4.70;2.87;;;21.00;99.90;;;;;;4929225;29;20573;-76
2022/05/19 08:06:43;;;;;;;3.90;2.63;;;21.20;99.90;;;;;;4932074;29;20530;-78
2022/05/19 08:12:02;;;;;;;5.40;3.30;;;21.40;99.90;;;;;;4933077;29;20520;-76
2022/05/19 08:17:17;;;;;;;5.63;3.00;;;21.60;99.90;;;;;;4931464;29;20927;-76
2022/05/19 08:19:45;;;;;;;4.27;3.07;;;21.70;99.90;;;;;;4931331;29;20462;-76
2022/05/19 08:22:12;;;;;;;3.73;2.80;;;21.80;99.90;;;;;;4931355;29;21018;-77
2022/05/19 08:24:39;;;;;;;6.17;2.70;;;21.80;99.90;;;;;;4930928;29;20470;-77
2022/05/19 08:27:08;;;;;;;3.87;3.10;;;21.80;99.90;;;;;;4931220;29;20454;-76
2022/05/19 08:29:34;;;;;;;3.60;3.00;;;21.90;99.90;;;;;;4931198;29;21063;-76
2022/05/19 08:32:01;;;;;;;4.33;3.00;;;22.00;99.90;;;;;;4931048;29;20896;-77
2022/05/19 08:34:28;;;;;;;5.03;3.53;;;22.20;99.90;;;;;;4930461;29;20542;-76
2022/05/19 08:36:55;;;;;;;4.60;2.90;;;22.30;99.90;;;;;;4930862;29;20863;-77
2022/05/19 08:39:24;;;;;;;5.67;3.40;;;22.40;99.90;;;;;;4931024;29;20980;-77
2022/05/19 08:41:54;;;;;;;3.40;2.83;;;22.50;99.90;;;;;;4931081;29;20522;-77
2022/05/19 08:44:26;;;;;;;3.90;3.10;;;22.70;99.90;;;;;;4930153;29;20470;-77
2022/05/19 08:46:55;;;;;;;3.03;2.73;;;22.80;99.90;;;;;;4931009;29;20832;-77
2022/05/19 08:49:28;;;;;;;4.33;3.20;;;23.00;99.90;;;;;;4930870;29;20474;-77
2022/05/19 08:52:00;;;;;;;5.07;2.80;;;23.10;99.90;;;;;;4930962;29;20573;-77
2022/05/19 08:54:27;;;;;;;4.57;3.10;;;23.20;99.90;;;;;;4930578;29;20995;-77
2022/05/19 08:56:59;;;;;;;2.97;2.67;;;23.30;99.90;;;;;;4930579;29;20989;-77
2022/05/19 08:59:39;;;;;;;4.70;2.93;;;23.40;99.90;;;;;;4930499;29;20569;-77
2022/05/19 09:02:09;;;;;;;3.40;3.10;;;23.50;99.90;;;;;;4930804;29;21067;-76
2022/05/19 09:04:49;;;;;;;3.40;3.10;;;23.60;99.90;;;;;;4930193;29;20513;-77
2022/05/19 09:10:23;;;;;;;2.97;2.67;;;23.90;99.90;;;;;;4930280;29;20914;-77
2022/05/19 09:13:04;;;;;;;4.60;2.80;;;24.00;99.90;;;;;;4930919;29;20784;-77
2022/05/19 09:15:34;;;;;;;4.70;3.20;;;24.10;99.90;;;;;;4929809;29;20458;-77
2022/05/19 09:18:01;;;;;;;3.63;3.00;;;24.10;99.90;;;;;;4929109;29;20959;-77
2022/05/19 09:20:39;;;;;;;2.93;2.67;;;24.20;99.90;;;;;;4930023;29;20473;-77
2022/05/19 09:23:06;;;;;;;8.30;3.10;;;24.30;99.90;;;;;;4930389;29;20469;-77
2022/05/19 09:25:37;;;;;;;3.40;2.63;;;24.40;99.90;;;;;;4929678;29;20458;-77
2022/05/19 09:28:05;;;;;;;4.67;2.93;;;24.40;99.90;;;;;;4930301;29;20470;-77
2022/05/19 09:30:38;;;;;;;4.07;3.30;;;24.40;99.90;;;;;;4929825;29;20462;-77
2022/05/19 09:33:14;;;;;;;3.40;2.90;;;24.60;99.90;;;;;;4930533;29;20557;-77
2022/05/19 09:35:45;;;;;;;4.37;3.07;;;24.80;99.90;;;;;;4929379;29;20545;-77
2022/05/19 09:38:24;;;;;;;2.93;2.63;;;24.90;99.90;;;;;;4930350;29;20517;-77
2022/05/19 09:40:54;;;;;;;4.20;2.80;;;24.90;99.90;;;;;;4930002;29;20463;-77
2022/05/19 09:43:26;;;;;;;5.27;3.07;;;25.00;99.90;;;;;;4929963;29;20463;-76
2022/05/19 09:46:03;;;;;;;3.37;3.07;;;25.00;99.90;;;;;;4929639;29;20559;-77
2022/05/19 09:48:36;;;;;;;6.67;4.10;;;25.20;99.90;;;;;;4930259;29;20466;-77
2022/05/19 09:51:09;;;;;;;4.70;3.40;;;25.20;99.90;;;;;;4929800;29;20511;-77
2022/05/19 09:53:42;;;;;;;6.77;3.43;;;25.20;99.90;;;;;;4929559;29;20463;-77
2022/05/19 09:56:12;;;;;;;3.87;3.47;;;25.30;99.90;;;;;;4929430;29;20534;-77
2022/05/19 09:58:44;;;;;;;3.43;3.13;;;25.50;99.90;;;;;;4929698;29;20438;-77
2022/05/19 10:01:20;;;;;;;5.97;3.07;;;25.60;99.90;;;;;;4929591;29;20998;-77
2022/05/19 10:03:52;;;;;;;6.17;3.47;;;25.70;99.90;;;;;;4929689;29;20509;-77
2022/05/19 10:06:22;;;;;;;4.93;3.10;;;25.70;99.90;;;;;;4929079;29;20451;-77
2022/05/19 10:08:58;;;;;;;3.10;2.77;;;25.80;99.90;;;;;;4930080;29;20474;-77
2022/05/19 10:11:28;;;;;;;6.23;3.50;;;25.90;99.90;;;;;;4930163;29;20494;-77
2022/05/19 10:13:58;;;;;;;3.90;2.70;;;26.00;99.90;;;;;;4929617;29;20502;-77
2022/05/19 10:16:35;;;;;;;3.93;3.20;;;26.10;99.90;;;;;;4927767;29;20473;-77
2022/05/19 10:19:14;;;;;;;3.37;3.03;;;26.10;99.90;;;;;;4928324;29;20469;-77
2022/05/19 10:21:55;;;;;;;4.63;2.70;;;26.20;99.90;;;;;;4928924;29;20491;-77
2022/05/19 10:24:41;;;;;;;7.00;3.30;;;26.40;99.90;;;;;;4928591;29;20743;-77
2022/05/19 10:33:13;;;;;;;7.50;3.30;;;26.50;99.90;;;;;;4928970;29;20489;-77
2022/05/19 10:35:55;;;;;;;4.87;3.00;;;26.60;99.90;;;;;;4928574;29;21014;-77
2022/05/19 10:38:43;;;;;;;4.70;2.47;;;26.60;99.90;;;;;;4929031;29;20568;-77
2022/05/19 10:41:19;;;;;;;8.90;3.17;;;26.60;99.90;;;;;;4929395;29;20493;-77
2022/05/19 10:44:14;;;;;;;6.87;3.40;;;26.70;99.90;;;;;;4929273;29;20510;-77
2022/05/19 10:46:51;;;;;;;4.00;3.13;;;26.80;99.90;;;;;;4928814;29;21368;-78
2022/05/19 10:49:42;;;;;;;4.93;3.10;;;26.80;99.90;;;;;;4929511;29;20468;-77
2022/05/19 10:52:17;;;;;;;4.50;2.90;;;26.90;99.90;;;;;;4928761;29;20488;-77
2022/05/19 10:54:57;;;;;;;4.03;2.90;;;27.00;99.90;;;;;;4928494;29;20509;-77
2022/05/19 10:57:48;;;;;;;5.27;3.07;;;27.00;99.90;;;;;;4929152;29;20466;-78
2022/05/19 11:00:19;;;;;;;4.60;3.23;;;27.20;99.90;;;;;;4928584;29;20834;-77
2022/05/19 11:03:20;;;;;;;5.53;3.30;;;27.30;99.90;;;;;;4929004;29;20577;-77
2022/05/19 11:06:01;;;;;;;3.60;3.00;;;27.40;99.90;;;;;;4928079;29;20466;-78
2022/05/19 11:08:42;;;;;;;5.60;3.40;;;27.50;99.90;;;;;;4929566;29;20466;-78
2022/05/19 11:11:18;;;;;;;5.80;3.00;;;27.50;99.90;;;;;;4929202;29;20481;-78
2022/05/19 11:13:55;;;;;;;5.03;2.80;;;27.60;99.90;;;;;;4934737;29;20466;-82
2022/05/19 11:16:32;;;;;;;5.70;3.03;;;27.60;99.90;;;;;;4946347;29;20466;-81
2022/05/19 11:19:04;;;;;;;4.47;3.20;;;27.70;99.90;;;;;;4946540;29;20454;-81
2022/05/19 11:21:37;;;;;;;4.50;3.10;;;27.70;99.90;;;;;;4935361;29;20558;-72
2022/05/19 11:24:11;;;;;;;5.77;3.03;;;27.80;99.90;;;;;;4927725;29;21030;-70
2022/05/19 11:26:44;;;;;;;11.20;4.70;;;27.90;99.90;;;;;;4927252;29;20467;-69
2022/05/19 11:29:20;;;;;;;7.10;2.87;;;28.00;99.90;;;;;;4927761;29;20469;-69
2022/05/19 11:31:55;;;;;;;6.17;3.43;;;28.10;99.90;;;;;;4927444;29;20556;-70
2022/05/19 11:34:28;;;;;;;7.07;3.60;;;28.20;99.90;;;;;;4943134;29;20517;-81
2022/05/19 11:37:04;;;;;;;8.07;3.30;;;28.20;99.90;;;;;;4946465;29;20463;-81
2022/05/19 11:39:37;;;;;;;5.13;3.53;;;28.30;99.90;;;;;;4945159;29;20966;-81
2022/05/19 11:42:26;;;;;;;4.77;2.97;;;28.30;99.90;;;;;;4945801;29;20496;-81
2022/05/19 11:44:54;;;;;;;23.97;7.93;;;28.40;99.90;;;;;;4940425;29;20474;-71
2022/05/19 12:06:49;;;;;;;4.80;3.40;;;28.90;99.90;;;;;;4879127;29;20436;-80
2022/05/19 12:09:27;;;;;;;5.73;2.90;;;28.90;99.90;;;;;;4880749;29;20469;-83
2022/05/19 12:11:59;;;;;;;5.37;3.13;;;28.90;99.90;;;;;;4882496;29;20561;-84
2022/05/19 12:14:40;;;;;;;7.00;3.27;;;29.00;99.90;;;;;;4928252;29;20526;-84
2022/05/19 12:17:17;;;;;;;5.10;3.10;;;29.00;99.90;;;;;;4937548;29;20484;-84
2022/05/19 12:19:47;;;;;;;5.73;3.30;;;29.10;99.90;;;;;;4939510;29;20798;-84
2022/05/19 12:22:30;;;;;;;3.30;3.00;;;29.20;99.90;;;;;;4940742;29;20483;-82
2022/05/19 12:25:09;;;;;;;3.20;2.83;;;29.30;99.90;;;;;;4940530;29;20467;-82
2022/05/19 12:27:45;;;;;;;3.20;2.90;;;29.30;99.90;;;;;;4943159;29;20465;-80
2022/05/19 12:33:13;;;;;;;4.33;2.93;;;29.40;99.90;;;;;;4902374;29;20460;-80
2022/05/19 12:35:41;;;;;;;4.03;3.00;;;29.40;99.90;;;;;;4934016;29;20494;-82
2022/05/19 12:38:31;;;;;;;6.43;3.43;;;29.50;99.90;;;;;;4945398;29;20501;-82
2022/05/19 12:41:00;;;;;;;4.40;3.03;;;29.60;99.90;;;;;;4945368;29;20470;-82
2022/05/19 12:43:39;;;;;;;6.73;3.30;;;29.60;99.90;;;;;;4943897;29;20478;-82
2022/05/19 12:46:09;;;;;;;5.60;3.40;;;29.70;99.90;;;;;;4942232;29;20646;-82
2022/05/19 12:49:13;;;;;;;5.57;3.40;;;29.80;99.90;;;;;;4938506;29;20530;-79
2022/05/19 12:51:53;;;;;;;4.43;3.27;;;30.00;99.90;;;;;;4934805;29;20485;-82
2022/05/19 12:54:23;;;;;;;3.60;2.90;;;30.10;99.90;;;;;;4943710;29;20886;-82
2022/05/19 12:57:26;;;;;;;5.80;3.00;;;30.30;99.90;;;;;;4945498;29;20470;-81
2022/05/19 13:00:12;;;;;;;4.87;3.07;;;30.40;99.90;;;;;;4941921;29;20514;-81
2022/05/19 13:02:53;;;;;;;3.80;2.77;;;30.50;99.90;;;;;;4941101;29;20486;-80
2022/05/19 13:05:24;;;;;;;5.57;3.53;;;30.50;99.90;;;;;;4937483;29;20465;-80
2022/05/19 13:07:58;;;;;;;6.77;3.20;;;30.50;99.90;;;;;;4937134;29;20502;-80
2022/05/19 13:10:34;;;;;;;5.23;3.33;;;30.70;99.90;;;;;;4937024;29;20506;-80
2022/05/19 13:13:06;;;;;;;5.97;3.13;;;30.80;99.90;;;;;;4937957;29;20466;-81
2022/05/19 13:15:35;;;;;;;3.50;3.20;;;30.80;99.90;;;;;;4935874;29;21026;-81
2022/05/19 13:18:08;;;;;;;4.43;3.10;;;30.90;99.90;;;;;;4936273;29;20498;-81
2022/05/19 13:20:39;;;;;;;7.30;3.63;;;30.90;99.90;;;;;;4937346;29;20497;-81
2022/05/19 13:23:08;;;;;;;34.60;17.00;;;31.00;99.90;;;;;;4930990;29;20568;-68
2022/05/19 13:25:45;;;;;;;31.13;14.00;;;31.10;99.90;;;;;;4929745;29;20521;-69
2022/05/19 13:30:59;;;;;;;13.37;5.97;;;31.30;99.90;;;;;;4930408;29;20458;-69
2022/05/19 13:33:31;;;;;;;13.27;6.63;;;31.40;99.90;;;;;;4930475;29;21379;-69
2022/05/19 13:36:00;;;;;;;8.50;4.40;;;31.50;99.90;;;;;;4929325;29;21029;-68
2022/05/19 13:38:27;;;;;;;6.67;4.33;;;31.50;99.90;;;;;;4930081;29;20470;-68
2022/05/19 13:40:56;;;;;;;11.33;5.77;;;31.50;99.90;;;;;;4929978;29;20569;-69
2022/05/19 13:43:30;;;;;;;22.80;8.80;;;31.60;99.90;;;;;;4930023;29;20818;-70
2022/05/19 13:46:01;;;;;;;19.80;8.30;;;31.60;99.90;;;;;;4929299;29;20458;-70
2022/05/19 13:48:42;;;;;;;13.30;7.13;;;31.70;99.90;;;;;;4929728;29;20963;-68
2022/05/19 13:51:16;;;;;;;5.73;3.93;;;31.70;99.90;;;;;;4929510;29;20561;-68
2022/05/19 13:53:47;;;;;;;4.93;3.53;;;31.70;99.90;;;;;;4930001;29;20473;-71
2022/05/19 13:56:16;;;;;;;10.33;6.20;;;31.70;99.90;;;;;;4929941;29;20581;-69
2022/05/19 13:58:48;;;;;;;6.40;3.90;;;31.80;99.90;;;;;;4930882;29;21416;-70
2022/05/19 14:01:24;;;;;;;12.80;4.97;;;31.80;99.90;;;;;;4929974;29;20485;-68
2022/05/19 14:03:53;;;;;;;7.33;3.27;;;31.80;99.90;;;;;;4929116;29;20485;-68
2022/05/19 14:06:23;;;;;;;7.17;3.43;;;31.80;99.90;;;;;;4927776;29;20557;-67
2022/05/19 14:08:50;;;;;;;10.00;4.40;;;31.80;99.90;;;;;;4928979;29;20835;-67
2022/05/19 14:11:20;;;;;;;15.00;4.10;;;31.70;99.90;;;;;;4929537;29;20467;-70
2022/05/19 14:13:52;;;;;;;6.17;4.10;;;31.70;99.90;;;;;;4959520;28;21028;-69
2022/05/19 14:16:20;;;;;;;4.17;3.17;;;31.70;99.90;;;;;;4966836;28;20551;-68
2022/05/19 14:18:50;;;;;;;8.13;4.60;;;31.70;99.90;;;;;;4968015;28;20556;-68
2022/05/19 14:21:20;;;;;;;7.23;3.87;;;31.70;99.90;;;;;;4967676;28;20571;-70
2022/05/19 14:23:51;;;;;;;7.33;4.17;;;31.70;99.90;;;;;;4967539;28;20457;-69
2022/05/19 14:26:23;;;;;;;6.30;3.90;;;31.70;99.90;;;;;;4967290;28;20971;-74
2022/05/19 14:28:52;;;;;;;6.57;4.13;;;31.70;99.90;;;;;;4968567;28;21272;-67
2022/05/19 14:31:23;;;;;;;5.50;3.50;;;31.60;99.90;;;;;;4967783;28;20492;-66
2022/05/19 14:33:58;;;;;;;4.30;3.00;;;31.60;99.90;;;;;;4967969;28;20464;-66
2022/05/19 14:36:28;;;;;;;9.30;4.10;;;31.60;99.90;;;;;;4967194;28;20495;-72
2022/05/19 14:39:02;;;;;;;8.43;3.90;;;31.50;99.90;;;;;;4964991;28;21384;-68
2022/05/19 14:44:29;;;;;;;4.43;3.20;;;31.60;99.90;;;;;;4971833;28;20961;-82
2022/05/19 14:47:03;;;;;;;4.60;3.43;;;31.60;99.90;;;;;;4971317;28;20433;-83
2022/05/19 14:49:34;;;;;;;5.83;3.40;;;31.50;99.90;;;;;;4970680;28;20445;-82
2022/05/19 14:52:03;;;;;;;5.50;3.63;;;31.60;99.90;;;;;;4970318;28;20575;-81
2022/05/19 14:54:36;;;;;;;4.50;3.30;;;31.60;99.90;;;;;;4969686;28;20485;-83
2022/05/19 14:57:11;;;;;;;5.43;3.97;;;31.60;99.90;;;;;;4969122;28;21142;-80
2022/05/19 14:59:48;;;;;;;6.47;3.73;;;31.60;99.90;;;;;;4970332;28;20526;-81
2022/05/19 15:02:15;;;;;;;4.40;3.50;;;31.60;99.90;;;;;;4970378;28;20492;-82
2022/05/19 15:04:42;;;;;;;5.73;3.33;;;31.70;99.90;;;;;;4969507;28;20536;-81
2022/05/19 15:07:16;;;;;;;5.20;3.57;;;31.60;99.90;;;;;;4969789;28;20989;-81
2022/05/19 15:09:43;;;;;;;7.00;3.93;;;31.60;99.90;;;;;;4970561;28;20461;-82
2022/05/19 15:12:11;;;;;;;6.10;3.53;;;31.60;99.90;;;;;;4970618;28;20551;-81
2022/05/19 15:14:38;;;;;;;6.87;3.43;;;31.70;99.90;;;;;;4968939;28;20488;-79
2022/05/19 15:17:06;;;;;;;9.57;4.33;;;31.70;99.90;;;;;;4969281;28;20503;-81
2022/05/19 15:19:33;;;;;;;6.37;3.57;;;31.70;99.90;;;;;;4969500;28;20471;-79
2022/05/19 15:22:00;;;;;;;5.60;3.80;;;31.70;99.90;;;;;;4970388;28;20488;-80
2022/05/19 15:24:26;;;;;;;5.80;3.70;;;31.80;99.90;;;;;;4971861;28;20464;-85
2022/05/19 15:26:57;;;;;;;9.40;4.00;;;31.80;99.90;;;;;;4981322;28;20460;-89
2022/05/19 15:29:26;;;;;;;3.73;3.40;;;31.80;99.90;;;;;;4980898;28;20472;-85
2022/05/19 15:31:53;;;;;;;7.27;3.77;;;31.80;99.90;;;;;;4979519;28;20514;-88
2022/05/19 15:34:22;;;;;;;7.53;3.50;;;31.90;99.90;;;;;;4980747;28;20453;-85
2022/05/19 15:36:49;;;;;;;3.80;3.10;;;31.80;99.90;;;;;;4984149;28;20520;-85
2022/05/19 15:39:20;;;;;;;9.07;3.90;;;31.80;99.90;;;;;;4984330;28;20472;-86
2022/05/19 15:41:47;;;;;;;7.97;3.93;;;31.80;99.90;;;;;;4977173;28;20520;-73
2022/05/19 15:44:14;;;;;;;6.93;3.40;;;31.70;99.90;;;;;;4976220;28;20456;-86
2022/05/19 15:46:42;;;;;;;9.50;5.10;;;31.70;99.90;;;;;;4982152;28;21371;-87
2022/05/19 15:49:10;;;;;;;9.27;4.23;;;31.60;99.90;;;;;;4982130;28;20460;-84
2022/05/19 15:51:37;;;;;;;8.30;4.63;;;31.60;99.90;;;;;;4983992;28;20508;-85
2022/05/19 15:54:04;;;;;;;12.93;4.93;;;31.50;99.90;;;;;;4983366;28;20461;-86
2022/05/19 15:56:32;;;;;;;10.13;4.50;;;31.50;99.90;;;;;;4970575;28;20528;-86
2022/05/19 15:58:58;;;;;;;7.67;4.30;;;31.50;99.90;;;;;;4978673;28;20518;-89
2022/05/19 16:01:25;;;;;;;8.60;4.33;;;31.50;99.90;;;;;;4976480;28;20469;-85
2022/05/19 16:03:54;;;;;;;16.07;4.33;;;31.50;99.90;;;;;;4973360;28;20857;-69
2022/05/19 16:06:20;;;;;;;12.50;5.43;;;31.50;99.90;;;;;;4972318;28;20459;-71
2022/05/19 16:08:47;;;;;;;8.70;3.90;;;31.50;99.90;;;;;;4973032;28;20961;-82
2022/05/19 16:11:15;;;;;;;4.47;3.67;;;31.50;99.90;;;;;;4972101;28;20567;-82
2022/05/19 16:13:46;;;;;;;6.40;3.37;;;31.50;99.90;;;;;;4970930;28;20461;-82
2022/05/19 16:16:13;;;;;;;4.83;3.40;;;31.50;99.90;;;;;;4969862;28;20483;-83
2022/05/19 16:18:40;;;;;;;9.10;4.23;;;31.50;99.90;;;;;;4971780;28;20471;-82
2022/05/19 16:21:15;;;;;;;5.03;3.90;;;31.40;99.90;;;;;;4970315;28;20509;-81
2022/05/19 16:23:42;;;;;;;7.47;3.63;;;31.30;99.90;;;;;;4969262;28;20463;-81
2022/05/19 16:26:09;;;;;;;6.23;3.90;;;31.30;99.90;;;;;;4970415;28;20556;-81
2022/05/19 16:28:36;;;;;;;5.90;3.73;;;31.30;99.90;;;;;;4972825;28;20920;-81
2022/05/19 16:31:03;;;;;;;11.47;4.50;;;31.30;99.90;;;;;;4972055;28;20999;-82
2022/05/19 16:33:30;;;;;;;6.87;3.77;;;31.20;99.90;;;;;;4971920;28;20467;-81
2022/05/19 16:35:59;;;;;;;6.73;4.20;;;31.10;99.90;;;;;;4971469;28;20496;-81
2022/05/19 16:38:27;;;;;;;4.53;3.90;;;31.20;99.90;;;;;;4972945;28;20468;-81
2022/05/19 16:40:54;;;;;;;8.27;5.57;;;31.10;99.90;;;;;;4971452;28;20501;-71
2022/05/19 16:43:21;;;;;;;7.43;4.10;;;30.90;99.90;;;;;;4982491;28;20468;-84
2022/05/19 16:45:49;;;;;;;6.27;3.90;;;30.90;99.90;;;;;;4981179;28;20461;-85
2022/05/19 16:48:17;;;;;;;7.80;3.80;;;30.70;99.90;;;;;;4979027;28;20528;-84
2022/05/19 16:50:44;;;;;;;7.60;4.07;;;30.60;99.90;;;;;;4980714;28;20468;-84
2022/05/19 16:53:12;;;;;;;6.50;4.20;;;30.50;99.90;;;;;;4978358;28;20927;-84
2022/05/19 16:58:28;;;;;;;13.33;4.70;;;30.50;99.90;;;;;;4979670;28;20991;-84
2022/05/19 17:00:58;;;;;;;6.40;3.93;;;30.30;99.90;;;;;;4979752;28;20527;-84
2022/05/19 17:03:24;;;;;;;5.27;3.83;;;30.20;99.90;;;;;;4979590;28;20556;-83
2022/05/19 17:05:53;;;;;;;9.70;5.23;;;30.20;99.90;;;;;;4980174;28;20516;-84
2022/05/19 17:08:21;;;;;;;7.50;4.30;;;30.10;99.90;;;;;;4979611;28;20495;-83
2022/05/19 17:10:50;;;;;;;7.87;4.90;;;30.10;99.90;;;;;;4978601;28;20484;-83
2022/05/19 17:13:20;;;;;;;6.33;4.60;;;30.10;99.90;;;;;;4976861;28;20951;-82
2022/05/19 17:15:47;;;;;;;4.60;4.10;;;30.10;99.90;;;;;;4979098;28;20913;-83
2022/05/19 17:18:15;;;;;;;17.03;6.47;;;30.00;99.90;;;;;;4978069;28;20452;-83
2022/05/19 17:20:44;;;;;;;7.57;4.60;;;30.00;99.90;;;;;;4976837;28;20481;-82
2022/05/19 17:23:11;;;;;;;9.83;4.10;;;29.80;99.90;;;;;;4976588;28;20503;-82
2022/05/19 17:25:40;;;;;;;6.20;3.87;;;29.40;99.90;;;;;;4975814;28;20516;-84
2022/05/19 17:28:09;;;;;;;7.43;4.13;;;29.10;99.90;;;;;;4976360;28;20537;-84
2022/05/19 17:30:36;;;;;;;12.43;3.93;;;28.70;99.90;;;;;;4973654;28;20463;-83
2022/05/19 17:33:04;;;;;;;11.23;3.90;;;28.10;99.90;;;;;;4973183;28;20519;-83
2022/05/19 17:35:37;;;;;;;24.40;5.70;;;27.60;99.90;;;;;;4972470;28;20468;-83
2022/05/19 17:38:04;;;;;;;13.73;3.80;;;26.70;99.90;;;;;;4974952;28;20761;-82
2022/05/19 17:40:33;;;;;;;13.90;3.57;;;26.50;99.90;;;;;;4973828;28;20457;-83
2022/05/19 17:43:00;;;;;;;7.27;3.90;;;26.50;99.90;;;;;;4974277;28;20548;-83
2022/05/19 17:45:28;;;;;;;15.30;4.60;;;26.10;99.90;;;;;;4973354;28;20461;-83
2022/05/19 17:47:55;;;;;;;13.20;4.40;;;25.70;99.90;;;;;;4979887;28;20961;-84
2022/05/19 17:50:24;;;;;;;14.33;4.67;;;25.10;99.90;;;;;;4981642;28;20471;-83
2022/05/19 17:52:53;;;;;;;18.10;5.53;;;24.60;99.90;;;;;;4979633;28;20464;-81
2022/05/19 17:55:21;;;;;;;20.00;7.00;;;24.10;99.90;;;;;;4973760;28;20483;-79